VKG9JM EKVG-BIKF
Flight info
| Callsign | VKG9JM |
|---|---|
| Flight time | 1h 17m |
| Altitude | 40000 |
| Route | MY DCT ING DCT NASBU NASBU4K |
| Aircraft | A339/H-SADE1E2E3GHIJ1J3J5M1P2RWXY/LB2D1 |
Departure
| Time | 2026-04-27 09:51 |
|---|---|
| Airport | Vágar Airport (EKVG) |
Arrival
| Time | 2026-04-27 11:08 |
|---|---|
| Airport | Keflavik International Airport (BIKF) |
| Time | Latitude | Longitude | Altitude | Speed | Heading |
|---|---|---|---|---|---|
| 2026-04-27 08:48 | 62.06661 | -7.27850 | 269 ft | 0 kts | 28° |
| 2026-04-27 09:39 | 62.06658 | -7.27853 | 270 ft | 1 kts | 28° |
| 2026-04-27 09:39 | 62.06650 | -7.27862 | 273 ft | 1 kts | 28° |
| 2026-04-27 09:39 | 62.06642 | -7.27873 | 270 ft | 1 kts | 19° |
| 2026-04-27 09:40 | 62.06633 | -7.27883 | 273 ft | 1 kts | 352° |
| 2026-04-27 09:40 | 62.06623 | -7.27884 | 275 ft | 1 kts | 313° |
| 2026-04-27 09:40 | 62.06616 | -7.27870 | 272 ft | 1 kts | 288° |
| 2026-04-27 09:40 | 62.06613 | -7.27852 | 272 ft | 1 kts | 288° |
| 2026-04-27 09:41 | 62.06610 | -7.27832 | 270 ft | 1 kts | 298° |
| 2026-04-27 09:41 | 62.06609 | -7.27830 | 270 ft | 0 kts | 298° |
| 2026-04-27 09:43 | 62.06615 | -7.27851 | 273 ft | 4 kts | 298° |
| 2026-04-27 09:43 | 62.06634 | -7.27926 | 273 ft | 7 kts | 297° |
| 2026-04-27 09:43 | 62.06640 | -7.28027 | 270 ft | 6 kts | 257° |
| 2026-04-27 09:43 | 62.06610 | -7.28049 | 270 ft | 6 kts | 192° |
| 2026-04-27 09:44 | 62.06573 | -7.28067 | 270 ft | 5 kts | 193° |
| 2026-04-27 09:44 | 62.06554 | -7.28079 | 270 ft | 0 kts | 196° |
| 2026-04-27 09:46 | 62.06528 | -7.28099 | 270 ft | 8 kts | 200° |
| 2026-04-27 09:47 | 62.06486 | -7.28193 | 271 ft | 10 kts | 260° |
| 2026-04-27 09:47 | 62.06511 | -7.28353 | 270 ft | 13 kts | 297° |
| 2026-04-27 09:47 | 62.06555 | -7.28537 | 273 ft | 15 kts | 297° |
| 2026-04-27 09:47 | 62.06604 | -7.28739 | 275 ft | 15 kts | 298° |
| 2026-04-27 09:48 | 62.06643 | -7.28889 | 278 ft | 12 kts | 298° |
| 2026-04-27 09:48 | 62.06680 | -7.29043 | 278 ft | 12 kts | 296° |
| 2026-04-27 09:48 | 62.06696 | -7.29172 | 279 ft | 8 kts | 286° |
| 2026-04-27 09:48 | 62.06720 | -7.29181 | 279 ft | 2 kts | 12° |
| 2026-04-27 09:49 | 62.06724 | -7.29163 | 279 ft | 1 kts | 47° |
| 2026-04-27 09:49 | 62.06729 | -7.29143 | 279 ft | 1 kts | 59° |
| 2026-04-27 09:49 | 62.06728 | -7.29135 | 279 ft | 0 kts | 72° |
| 2026-04-27 09:49 | 62.06720 | -7.29082 | 280 ft | 5 kts | 120° |
| 2026-04-27 09:50 | 62.06692 | -7.29044 | 279 ft | 6 kts | 146° |
| 2026-04-27 09:50 | 62.06662 | -7.28957 | 278 ft | 5 kts | 118° |
| 2026-04-27 09:50 | 62.06661 | -7.28956 | 278 ft | 0 kts | 118° |
| 2026-04-27 09:50 | 62.06625 | -7.28810 | 277 ft | 53 kts | 118° |
| 2026-04-27 09:51 | 62.06263 | -7.27356 | 272 ft | 161 kts | 118° |
| 2026-04-27 09:51 | 62.05671 | -7.24985 | 751 ft | 191 kts | 117° |
| 2026-04-27 09:51 | 62.05065 | -7.22521 | 1980 ft | 184 kts | 119° |
| 2026-04-27 09:51 | 62.04447 | -7.20029 | 3034 ft | 200 kts | 119° |
| 2026-04-27 09:52 | 62.03758 | -7.17267 | 3778 ft | 222 kts | 119° |
| 2026-04-27 09:52 | 62.03002 | -7.14236 | 4433 ft | 242 kts | 119° |
| 2026-04-27 09:52 | 62.02079 | -7.11184 | 5072 ft | 254 kts | 130° |
| 2026-04-27 09:52 | 62.00796 | -7.08585 | 5871 ft | 256 kts | 144° |
| 2026-04-27 09:53 | 61.99248 | -7.06691 | 6680 ft | 258 kts | 158° |
| 2026-04-27 09:53 | 61.97519 | -7.05615 | 7376 ft | 264 kts | 171° |
| 2026-04-27 09:53 | 61.95645 | -7.05452 | 8035 ft | 274 kts | 186° |
| 2026-04-27 09:53 | 61.93781 | -7.06302 | 8998 ft | 276 kts | 200° |
| 2026-04-27 09:54 | 61.92046 | -7.08101 | 9906 ft | 281 kts | 214° |
| 2026-04-27 09:54 | 61.90554 | -7.10807 | 10780 ft | 284 kts | 229° |
| 2026-04-27 09:54 | 61.89422 | -7.14262 | 11638 ft | 288 kts | 244° |
| 2026-04-27 09:54 | 61.88739 | -7.18262 | 12523 ft | 290 kts | 259° |
| 2026-04-27 09:55 | 61.88568 | -7.22526 | 13423 ft | 292 kts | 274° |
| 2026-04-27 09:55 | 61.88930 | -7.26759 | 14319 ft | 294 kts | 289° |
| 2026-04-27 09:55 | 61.91138 | -7.33946 | 15982 ft | 296 kts | 319° |
| 2026-04-27 09:56 | 61.92823 | -7.36392 | 16813 ft | 299 kts | 330° |
| 2026-04-27 09:56 | 61.94687 | -7.38613 | 17161 ft | 318 kts | 330° |
| 2026-04-27 09:56 | 61.96671 | -7.41030 | 17354 ft | 338 kts | 330° |
| 2026-04-27 09:56 | 61.98750 | -7.43609 | 17729 ft | 351 kts | 329° |
| 2026-04-27 09:57 | 62.00870 | -7.46264 | 18480 ft | 353 kts | 329° |
| 2026-04-27 09:57 | 62.02988 | -7.48928 | 19168 ft | 355 kts | 329° |
| 2026-04-27 09:57 | 62.05113 | -7.51610 | 19845 ft | 356 kts | 329° |
| 2026-04-27 09:57 | 62.07254 | -7.54315 | 20525 ft | 358 kts | 329° |
| 2026-04-27 09:58 | 62.09311 | -7.57342 | 21157 ft | 361 kts | 321° |
| 2026-04-27 09:58 | 62.11050 | -7.61229 | 21851 ft | 365 kts | 310° |
| 2026-04-27 09:58 | 62.12409 | -7.65852 | 22517 ft | 371 kts | 299° |
| 2026-04-27 09:58 | 62.13523 | -7.70855 | 23156 ft | 375 kts | 298° |
| 2026-04-27 09:59 | 62.14657 | -7.75899 | 23801 ft | 378 kts | 299° |
| 2026-04-27 09:59 | 62.15812 | -7.80967 | 24389 ft | 380 kts | 299° |
| 2026-04-27 09:59 | 62.16977 | -7.86045 | 25045 ft | 380 kts | 299° |
| 2026-04-27 09:59 | 62.18146 | -7.91134 | 25648 ft | 382 kts | 300° |
| 2026-04-27 10:00 | 62.19318 | -7.96244 | 26253 ft | 383 kts | 300° |
| 2026-04-27 10:00 | 62.20492 | -8.01378 | 26855 ft | 385 kts | 300° |
| 2026-04-27 10:00 | 62.21653 | -8.06468 | 27431 ft | 386 kts | 300° |
| 2026-04-27 10:00 | 62.22832 | -8.11659 | 28015 ft | 388 kts | 300° |
| 2026-04-27 10:01 | 62.24012 | -8.16869 | 28590 ft | 389 kts | 300° |
| 2026-04-27 10:01 | 62.25197 | -8.22123 | 29114 ft | 391 kts | 300° |
| 2026-04-27 10:01 | 62.26383 | -8.27394 | 29657 ft | 393 kts | 300° |
| 2026-04-27 10:01 | 62.27576 | -8.32702 | 30156 ft | 396 kts | 300° |
| 2026-04-27 10:02 | 62.28771 | -8.38040 | 30675 ft | 397 kts | 299° |
| 2026-04-27 10:02 | 62.29965 | -8.43393 | 31156 ft | 398 kts | 299° |
| 2026-04-27 10:02 | 62.31166 | -8.48785 | 31650 ft | 400 kts | 299° |
| 2026-04-27 10:02 | 62.32368 | -8.54195 | 32086 ft | 402 kts | 299° |
| 2026-04-27 10:03 | 62.33577 | -8.59650 | 32544 ft | 404 kts | 299° |
| 2026-04-27 10:03 | 62.34786 | -8.65119 | 32973 ft | 405 kts | 299° |
| 2026-04-27 10:03 | 62.35997 | -8.70611 | 33339 ft | 407 kts | 299° |
| 2026-04-27 10:03 | 62.37213 | -8.76131 | 33583 ft | 409 kts | 299° |
| 2026-04-27 10:04 | 62.38430 | -8.81678 | 33850 ft | 410 kts | 299° |
| 2026-04-27 10:04 | 62.39644 | -8.87225 | 34193 ft | 408 kts | 299° |
| 2026-04-27 10:04 | 62.40850 | -8.92759 | 34500 ft | 407 kts | 298° |
| 2026-04-27 10:04 | 62.42041 | -8.98225 | 34643 ft | 410 kts | 298° |
| 2026-04-27 10:05 | 62.43254 | -9.03812 | 34855 ft | 411 kts | 298° |
| 2026-04-27 10:05 | 62.44467 | -9.09412 | 35056 ft | 412 kts | 298° |
| 2026-04-27 10:05 | 62.45679 | -9.15027 | 35264 ft | 413 kts | 298° |
| 2026-04-27 10:05 | 62.46896 | -9.20676 | 35428 ft | 415 kts | 297° |
| 2026-04-27 10:06 | 62.48114 | -9.26344 | 35632 ft | 417 kts | 297° |
| 2026-04-27 10:06 | 62.49335 | -9.32042 | 35835 ft | 418 kts | 297° |
| 2026-04-27 10:06 | 62.50557 | -9.37761 | 36024 ft | 419 kts | 297° |
| 2026-04-27 10:06 | 62.51780 | -9.43500 | 36191 ft | 421 kts | 297° |
| 2026-04-27 10:07 | 62.53005 | -9.49267 | 36383 ft | 422 kts | 296° |
| 2026-04-27 10:07 | 62.54233 | -9.55063 | 36581 ft | 423 kts | 296° |
| 2026-04-27 10:07 | 62.55459 | -9.60866 | 36764 ft | 425 kts | 296° |
| 2026-04-27 10:07 | 62.56690 | -9.66708 | 36950 ft | 427 kts | 296° |
| 2026-04-27 10:08 | 62.57923 | -9.72575 | 37127 ft | 428 kts | 296° |
| 2026-04-27 10:08 | 62.59156 | -9.78457 | 37324 ft | 429 kts | 296° |
| 2026-04-27 10:08 | 62.60391 | -9.84365 | 37516 ft | 430 kts | 295° |
| 2026-04-27 10:08 | 62.61628 | -9.90302 | 37689 ft | 432 kts | 295° |
| 2026-04-27 10:09 | 62.62868 | -9.96267 | 37869 ft | 433 kts | 295° |
| 2026-04-27 10:09 | 62.64106 | -10.02244 | 38076 ft | 434 kts | 295° |
| 2026-04-27 10:09 | 62.65346 | -10.08245 | 38267 ft | 435 kts | 295° |
| 2026-04-27 10:09 | 62.66569 | -10.14183 | 38453 ft | 437 kts | 295° |
| 2026-04-27 10:10 | 62.67810 | -10.20226 | 38637 ft | 438 kts | 295° |
| 2026-04-27 10:10 | 62.69050 | -10.26277 | 38829 ft | 439 kts | 295° |
| 2026-04-27 10:10 | 62.70293 | -10.32365 | 39019 ft | 439 kts | 295° |
| 2026-04-27 10:10 | 62.71532 | -10.38451 | 39174 ft | 440 kts | 294° |
| 2026-04-27 10:11 | 62.72770 | -10.44551 | 39346 ft | 440 kts | 294° |
| 2026-04-27 10:11 | 62.74005 | -10.50655 | 39523 ft | 440 kts | 294° |
| 2026-04-27 10:11 | 62.75242 | -10.56788 | 39689 ft | 441 kts | 294° |
| 2026-04-27 10:11 | 62.76473 | -10.62907 | 39853 ft | 441 kts | 294° |
| 2026-04-27 10:12 | 62.77289 | -10.66976 | 39954 ft | 442 kts | 294° |
| 2026-04-27 10:12 | 62.78519 | -10.73123 | 40125 ft | 442 kts | 294° |
| 2026-04-27 10:12 | 62.79750 | -10.79289 | 40236 ft | 443 kts | 294° |
| 2026-04-27 10:12 | 62.80990 | -10.85527 | 40237 ft | 441 kts | 294° |
| 2026-04-27 10:13 | 62.83412 | -10.97758 | 40234 ft | 440 kts | 294° |
| 2026-04-27 10:13 | 62.85853 | -11.10162 | 40236 ft | 447 kts | 293° |
| 2026-04-27 10:14 | 62.88312 | -11.22730 | 40232 ft | 451 kts | 293° |
| 2026-04-27 10:14 | 62.90776 | -11.35407 | 40215 ft | 452 kts | 293° |
| 2026-04-27 10:15 | 62.93231 | -11.48115 | 40231 ft | 453 kts | 293° |
| 2026-04-27 10:15 | 62.95679 | -11.60867 | 40229 ft | 453 kts | 292° |
| 2026-04-27 10:16 | 62.98115 | -11.73642 | 40217 ft | 453 kts | 292° |
| 2026-04-27 10:16 | 63.00537 | -11.86421 | 40219 ft | 452 kts | 292° |
| 2026-04-27 10:17 | 63.02943 | -11.99201 | 40211 ft | 452 kts | 292° |
| 2026-04-27 10:17 | 63.05337 | -12.11998 | 40210 ft | 451 kts | 292° |
| 2026-04-27 10:18 | 63.07719 | -12.24817 | 40210 ft | 451 kts | 292° |
| 2026-04-27 10:18 | 63.10086 | -12.37633 | 40205 ft | 451 kts | 292° |
| 2026-04-27 10:19 | 63.12439 | -12.50462 | 40203 ft | 450 kts | 291° |
| 2026-04-27 10:19 | 63.14766 | -12.63230 | 40199 ft | 450 kts | 291° |
| 2026-04-27 10:20 | 63.17092 | -12.76077 | 40193 ft | 450 kts | 291° |
| 2026-04-27 10:20 | 63.19406 | -12.88937 | 40190 ft | 449 kts | 291° |
| 2026-04-27 10:21 | 63.21708 | -13.01820 | 40182 ft | 449 kts | 291° |
| 2026-04-27 10:21 | 63.23994 | -13.14700 | 40187 ft | 449 kts | 291° |
| 2026-04-27 10:22 | 63.26273 | -13.27626 | 40183 ft | 449 kts | 290° |
| 2026-04-27 10:22 | 63.28523 | -13.40475 | 40180 ft | 449 kts | 290° |
| 2026-04-27 10:23 | 63.30777 | -13.53433 | 40178 ft | 449 kts | 290° |
| 2026-04-27 10:23 | 63.33020 | -13.66413 | 40174 ft | 449 kts | 290° |
| 2026-04-27 10:24 | 63.35253 | -13.79424 | 40168 ft | 450 kts | 290° |
| 2026-04-27 10:24 | 63.37472 | -13.92443 | 40167 ft | 449 kts | 290° |
| 2026-04-27 10:25 | 63.39677 | -14.05474 | 40161 ft | 449 kts | 289° |
| 2026-04-27 10:25 | 63.41873 | -14.18536 | 40156 ft | 449 kts | 289° |
| 2026-04-27 10:26 | 63.44046 | -14.31555 | 40154 ft | 449 kts | 289° |
| 2026-04-27 10:26 | 63.46218 | -14.44659 | 40149 ft | 449 kts | 289° |
| 2026-04-27 10:27 | 63.48378 | -14.57782 | 40141 ft | 450 kts | 289° |
| 2026-04-27 10:27 | 63.50530 | -14.70949 | 40140 ft | 451 kts | 289° |
| 2026-04-27 10:28 | 63.52674 | -14.84163 | 40138 ft | 451 kts | 288° |
| 2026-04-27 10:28 | 63.54804 | -14.97387 | 40137 ft | 451 kts | 288° |
| 2026-04-27 10:29 | 63.56927 | -15.10659 | 40129 ft | 452 kts | 288° |
| 2026-04-27 10:29 | 63.59026 | -15.23884 | 40125 ft | 452 kts | 288° |
| 2026-04-27 10:30 | 63.61130 | -15.37229 | 40122 ft | 453 kts | 288° |
| 2026-04-27 10:30 | 63.63222 | -15.50602 | 40118 ft | 453 kts | 288° |
| 2026-04-27 10:31 | 63.65302 | -15.63993 | 40112 ft | 454 kts | 287° |
| 2026-04-27 10:31 | 63.67375 | -15.77444 | 40111 ft | 455 kts | 287° |
| 2026-04-27 10:32 | 63.69443 | -15.90963 | 40110 ft | 456 kts | 287° |
| 2026-04-27 10:32 | 63.71501 | -16.04517 | 40105 ft | 456 kts | 287° |
| 2026-04-27 10:33 | 63.73548 | -16.18104 | 40095 ft | 458 kts | 287° |
| 2026-04-27 10:33 | 63.75577 | -16.31647 | 40097 ft | 458 kts | 287° |
| 2026-04-27 10:34 | 63.77615 | -16.45302 | 40105 ft | 458 kts | 287° |
| 2026-04-27 10:34 | 63.79355 | -16.59155 | 40095 ft | 458 kts | 282° |
| 2026-04-27 10:35 | 63.80655 | -16.73261 | 40090 ft | 458 kts | 278° |
| 2026-04-27 10:35 | 63.81450 | -16.87542 | 40095 ft | 458 kts | 275° |
| 2026-04-27 10:36 | 63.82205 | -17.01873 | 40085 ft | 458 kts | 275° |
| 2026-04-27 10:36 | 63.82926 | -17.16254 | 40084 ft | 460 kts | 275° |
| 2026-04-27 10:37 | 63.83613 | -17.30653 | 40077 ft | 460 kts | 275° |
| 2026-04-27 10:37 | 63.84285 | -17.45097 | 40075 ft | 461 kts | 275° |
| 2026-04-27 10:38 | 63.84943 | -17.59567 | 40069 ft | 462 kts | 274° |
| 2026-04-27 10:38 | 63.85588 | -17.74076 | 40066 ft | 461 kts | 274° |
| 2026-04-27 10:39 | 63.86213 | -17.88464 | 40056 ft | 462 kts | 274° |
| 2026-04-27 10:39 | 63.86831 | -18.02981 | 40051 ft | 462 kts | 274° |
| 2026-04-27 10:40 | 63.87432 | -18.17502 | 40037 ft | 463 kts | 274° |
| 2026-04-27 10:40 | 63.88019 | -18.32044 | 40028 ft | 463 kts | 274° |
| 2026-04-27 10:41 | 63.88594 | -18.46639 | 40018 ft | 464 kts | 274° |
| 2026-04-27 10:41 | 63.89154 | -18.61236 | 40013 ft | 464 kts | 273° |
| 2026-04-27 10:42 | 63.89700 | -18.75863 | 40004 ft | 465 kts | 273° |
| 2026-04-27 10:42 | 63.90232 | -18.90514 | 39997 ft | 466 kts | 273° |
| 2026-04-27 10:43 | 63.90749 | -19.05156 | 39956 ft | 465 kts | 273° |
| 2026-04-27 10:43 | 63.91000 | -19.12408 | 39742 ft | 453 kts | 273° |
| 2026-04-27 10:43 | 63.91238 | -19.19414 | 39523 ft | 448 kts | 272° |
| 2026-04-27 10:44 | 63.91475 | -19.26495 | 39135 ft | 448 kts | 272° |
| 2026-04-27 10:44 | 63.91708 | -19.33566 | 38321 ft | 450 kts | 272° |
| 2026-04-27 10:44 | 63.91940 | -19.40708 | 36979 ft | 457 kts | 272° |
| 2026-04-27 10:44 | 63.92171 | -19.47954 | 35704 ft | 461 kts | 272° |
| 2026-04-27 10:45 | 63.92401 | -19.55215 | 34630 ft | 460 kts | 272° |
| 2026-04-27 10:45 | 63.92629 | -19.62522 | 33325 ft | 466 kts | 272° |
| 2026-04-27 10:45 | 63.92855 | -19.69885 | 31969 ft | 467 kts | 272° |
| 2026-04-27 10:45 | 63.93072 | -19.77204 | 30725 ft | 469 kts | 272° |
| 2026-04-27 10:46 | 63.93289 | -19.84565 | 29839 ft | 464 kts | 272° |
| 2026-04-27 10:46 | 63.93499 | -19.91803 | 29147 ft | 453 kts | 272° |
| 2026-04-27 10:46 | 63.93702 | -19.98871 | 28600 ft | 443 kts | 272° |
| 2026-04-27 10:46 | 63.93896 | -20.05828 | 27838 ft | 439 kts | 272° |
| 2026-04-27 10:47 | 63.94085 | -20.12708 | 27097 ft | 432 kts | 272° |
| 2026-04-27 10:47 | 63.94267 | -20.19406 | 26663 ft | 413 kts | 272° |
| 2026-04-27 10:47 | 63.94438 | -20.25735 | 26180 ft | 393 kts | 271° |
| 2026-04-27 10:47 | 63.94603 | -20.31887 | 25231 ft | 389 kts | 271° |
| 2026-04-27 10:48 | 63.94726 | -20.37997 | 24442 ft | 384 kts | 270° |
| 2026-04-27 10:48 | 63.94860 | -20.44030 | 23686 ft | 379 kts | 271° |
| 2026-04-27 10:48 | 63.95035 | -20.49990 | 22986 ft | 374 kts | 272° |
| 2026-04-27 10:48 | 63.95211 | -20.55873 | 22327 ft | 373 kts | 272° |
| 2026-04-27 10:49 | 63.95378 | -20.61770 | 21666 ft | 372 kts | 271° |
| 2026-04-27 10:49 | 63.95535 | -20.67557 | 21021 ft | 362 kts | 271° |
| 2026-04-27 10:49 | 63.95682 | -20.73259 | 20386 ft | 361 kts | 271° |
| 2026-04-27 10:49 | 63.95823 | -20.78955 | 19731 ft | 359 kts | 271° |
| 2026-04-27 10:50 | 63.95958 | -20.84516 | 19089 ft | 353 kts | 271° |
| 2026-04-27 10:50 | 63.96090 | -20.90068 | 18457 ft | 349 kts | 270° |
| 2026-04-27 10:50 | 63.96311 | -20.95504 | 17951 ft | 341 kts | 280° |
| 2026-04-27 10:50 | 63.97250 | -21.00586 | 17880 ft | 357 kts | 300° |
| 2026-04-27 10:51 | 63.98923 | -21.04784 | 17615 ft | 359 kts | 321° |
| 2026-04-27 10:51 | 64.01125 | -21.07433 | 17348 ft | 360 kts | 341° |
| 2026-04-27 10:51 | 64.03594 | -21.08215 | 17087 ft | 360 kts | 2° |
| 2026-04-27 10:51 | 64.06027 | -21.07032 | 16827 ft | 357 kts | 23° |
| 2026-04-27 10:52 | 64.08110 | -21.04029 | 16557 ft | 352 kts | 44° |
| 2026-04-27 10:52 | 64.09556 | -20.99678 | 16297 ft | 346 kts | 65° |
| 2026-04-27 10:52 | 64.10224 | -20.94466 | 16052 ft | 340 kts | 87° |
| 2026-04-27 10:52 | 64.10012 | -20.89160 | 15810 ft | 333 kts | 108° |
| 2026-04-27 10:53 | 64.08970 | -20.84532 | 15552 ft | 326 kts | 130° |
| 2026-04-27 10:53 | 64.05139 | -20.79708 | 15058 ft | 321 kts | 174° |
| 2026-04-27 10:53 | 64.02930 | -20.80212 | 14810 ft | 321 kts | 196° |
| 2026-04-27 10:54 | 64.00976 | -20.82661 | 14561 ft | 323 kts | 219° |
| 2026-04-27 10:54 | 63.99487 | -20.86503 | 14325 ft | 325 kts | 230° |
| 2026-04-27 10:54 | 63.98051 | -20.90548 | 14087 ft | 348 kts | 229° |
| 2026-04-27 10:54 | 63.96574 | -20.95076 | 13837 ft | 361 kts | 238° |
| 2026-04-27 10:55 | 63.95740 | -21.00455 | 13585 ft | 364 kts | 258° |
| 2026-04-27 10:55 | 63.95727 | -21.06229 | 13319 ft | 367 kts | 275° |
| 2026-04-27 10:55 | 63.96128 | -21.11960 | 13050 ft | 364 kts | 278° |
| 2026-04-27 10:55 | 63.96521 | -21.17446 | 12771 ft | 335 kts | 276° |
| 2026-04-27 10:56 | 63.96795 | -21.22483 | 12511 ft | 314 kts | 274° |
| 2026-04-27 10:56 | 63.96977 | -21.27485 | 12247 ft | 316 kts | 271° |
| 2026-04-27 10:56 | 63.97104 | -21.32469 | 11982 ft | 313 kts | 270° |
| 2026-04-27 10:56 | 63.97204 | -21.37382 | 11720 ft | 313 kts | 270° |
| 2026-04-27 10:57 | 63.97294 | -21.42305 | 11463 ft | 311 kts | 270° |
| 2026-04-27 10:57 | 63.97588 | -21.47217 | 11204 ft | 314 kts | 280° |
| 2026-04-27 10:57 | 63.98268 | -21.51923 | 10941 ft | 314 kts | 291° |
| 2026-04-27 10:57 | 63.99197 | -21.56406 | 10667 ft | 312 kts | 294° |
| 2026-04-27 10:58 | 64.00123 | -21.60855 | 10260 ft | 309 kts | 293° |
| 2026-04-27 10:58 | 64.01016 | -21.65224 | 10131 ft | 309 kts | 292° |
| 2026-04-27 10:58 | 64.01915 | -21.69682 | 9997 ft | 309 kts | 292° |
| 2026-04-27 10:58 | 64.02806 | -21.74138 | 9859 ft | 308 kts | 292° |
| 2026-04-27 10:59 | 64.03693 | -21.78587 | 9669 ft | 302 kts | 292° |
| 2026-04-27 10:59 | 64.04536 | -21.82792 | 9317 ft | 282 kts | 292° |
| 2026-04-27 10:59 | 64.05071 | -21.85469 | 8824 ft | 279 kts | 291° |
| 2026-04-27 11:00 | 64.06646 | -21.93447 | 7815 ft | 277 kts | 291° |
| 2026-04-27 11:00 | 64.07441 | -21.97438 | 7409 ft | 273 kts | 292° |
| 2026-04-27 11:00 | 64.08222 | -22.01346 | 7119 ft | 270 kts | 291° |
| 2026-04-27 11:00 | 64.09002 | -22.05299 | 6738 ft | 271 kts | 291° |
| 2026-04-27 11:01 | 64.09764 | -22.09186 | 6339 ft | 267 kts | 291° |
| 2026-04-27 11:01 | 64.10526 | -22.13072 | 5924 ft | 266 kts | 291° |
| 2026-04-27 11:01 | 64.11287 | -22.16925 | 5521 ft | 267 kts | 291° |
| 2026-04-27 11:01 | 64.12047 | -22.20787 | 5155 ft | 264 kts | 291° |
| 2026-04-27 11:02 | 64.12802 | -22.24637 | 5005 ft | 267 kts | 291° |
| 2026-04-27 11:02 | 64.13558 | -22.28513 | 4889 ft | 265 kts | 291° |
| 2026-04-27 11:02 | 64.14298 | -22.32300 | 4638 ft | 262 kts | 290° |
| 2026-04-27 11:02 | 64.15031 | -22.36068 | 4295 ft | 253 kts | 290° |
| 2026-04-27 11:03 | 64.15727 | -22.39638 | 3896 ft | 241 kts | 290° |
| 2026-04-27 11:03 | 64.16147 | -22.43279 | 3219 ft | 235 kts | 267° |
| 2026-04-27 11:03 | 64.15843 | -22.46855 | 2667 ft | 225 kts | 244° |
| 2026-04-27 11:03 | 64.15276 | -22.50211 | 2404 ft | 229 kts | 242° |
| 2026-04-27 11:04 | 64.14702 | -22.53567 | 2136 ft | 224 kts | 242° |
| 2026-04-27 11:04 | 64.14103 | -22.56864 | 1990 ft | 222 kts | 235° |
| 2026-04-27 11:04 | 64.13072 | -22.59267 | 2004 ft | 204 kts | 204° |
| 2026-04-27 11:04 | 64.11831 | -22.60240 | 2001 ft | 181 kts | 186° |
| 2026-04-27 11:05 | 64.10555 | -22.60505 | 2001 ft | 182 kts | 178° |
| 2026-04-27 11:05 | 64.09295 | -22.60523 | 2010 ft | 182 kts | 176° |
| 2026-04-27 11:05 | 64.08025 | -22.60528 | 1914 ft | 183 kts | 177° |
| 2026-04-27 11:05 | 64.06758 | -22.60531 | 1664 ft | 179 kts | 176° |
| 2026-04-27 11:06 | 64.05570 | -22.60538 | 1413 ft | 160 kts | 176° |
| 2026-04-27 11:06 | 64.04555 | -22.60542 | 1203 ft | 137 kts | 175° |
| 2026-04-27 11:06 | 64.03669 | -22.60543 | 1017 ft | 119 kts | 174° |
| 2026-04-27 11:06 | 64.02859 | -22.60538 | 882 ft | 119 kts | 174° |
| 2026-04-27 11:07 | 64.02051 | -22.60542 | 736 ft | 117 kts | 176° |
| 2026-04-27 11:07 | 64.01212 | -22.60534 | 582 ft | 117 kts | 176° |
| 2026-04-27 11:07 | 64.00412 | -22.60528 | 388 ft | 116 kts | 177° |
| 2026-04-27 11:07 | 63.99617 | -22.60540 | 256 ft | 111 kts | 178° |
| 2026-04-27 11:08 | 63.98866 | -22.60560 | 174 ft | 101 kts | 177° |
| 2026-04-27 11:08 | 63.98254 | -22.60528 | 170 ft | 76 kts | 180° |
| 2026-04-27 11:08 | 63.97801 | -22.60536 | 165 ft | 51 kts | 180° |
| 2026-04-27 11:08 | 63.97571 | -22.60532 | 164 ft | 25 kts | 179° |
| 2026-04-27 11:09 | 63.97444 | -22.60649 | 161 ft | 20 kts | 244° |
| 2026-04-27 11:09 | 63.97472 | -22.60911 | 161 ft | 18 kts | 314° |
| 2026-04-27 11:09 | 63.97532 | -22.60938 | 161 ft | 4 kts | 358° |
| 2026-04-27 11:09 | 63.97589 | -22.60942 | 162 ft | 13 kts | 358° |
| 2026-04-27 11:10 | 63.97692 | -22.60945 | 163 ft | 17 kts | 359° |
| 2026-04-27 11:10 | 63.97819 | -22.60946 | 164 ft | 20 kts | 360° |
| 2026-04-27 11:10 | 63.97960 | -22.60948 | 165 ft | 21 kts | 360° |
| 2026-04-27 11:10 | 63.98109 | -22.60947 | 167 ft | 21 kts | 0° |
| 2026-04-27 11:11 | 63.98270 | -22.60940 | 168 ft | 25 kts | 2° |
| 2026-04-27 11:11 | 63.98453 | -22.60938 | 168 ft | 28 kts | 359° |
| 2026-04-27 11:11 | 63.98655 | -22.60942 | 170 ft | 29 kts | 360° |
| 2026-04-27 11:11 | 63.98827 | -22.60945 | 172 ft | 24 kts | 360° |
| 2026-04-27 11:12 | 63.99000 | -22.60945 | 174 ft | 21 kts | 360° |
| 2026-04-27 11:12 | 63.99094 | -22.60944 | 175 ft | 15 kts | 1° |
| 2026-04-27 11:12 | 63.99167 | -22.61012 | 175 ft | 9 kts | 297° |
| 2026-04-27 11:12 | 63.99172 | -22.61159 | 175 ft | 10 kts | 270° |
| 2026-04-27 11:13 | 63.99172 | -22.61367 | 173 ft | 16 kts | 270° |
| 2026-04-27 11:13 | 63.99172 | -22.61623 | 171 ft | 17 kts | 270° |
| 2026-04-27 11:13 | 63.99172 | -22.61857 | 169 ft | 14 kts | 270° |
| 2026-04-27 11:13 | 63.99217 | -22.61979 | 168 ft | 7 kts | 348° |
| 2026-04-27 11:14 | 63.99270 | -22.61992 | 169 ft | 8 kts | 356° |
| 2026-04-27 11:14 | 63.99340 | -22.62000 | 169 ft | 11 kts | 358° |
| 2026-04-27 11:14 | 63.99407 | -22.62029 | 169 ft | 8 kts | 331° |
| 2026-04-27 11:14 | 63.99412 | -22.62082 | 169 ft | 0 kts | 280° |
| 2026-04-27 11:15 | 63.99401 | -22.62113 | 169 ft | 5 kts | 239° |
| 2026-04-27 11:15 | 63.99385 | -22.62172 | 168 ft | 1 kts | 237° |